createdAt,value
2022-12-19T00:02:06.671Z,29.70
2022-12-19T00:04:34.070Z,29.83
2022-12-19T00:07:00.986Z,32.53
2022-12-19T00:09:28.094Z,29.47
2022-12-19T00:11:54.713Z,30.77
2022-12-19T00:14:21.352Z,30.07
2022-12-19T00:16:48.041Z,31.00
2022-12-19T00:19:15.625Z,31.13
2022-12-19T00:21:42.273Z,29.80
2022-12-19T00:24:20.532Z,29.17
2022-12-19T00:26:48.459Z,30.57
2022-12-19T00:29:15.060Z,32.00
2022-12-19T00:31:43.095Z,32.47
2022-12-19T00:34:10.061Z,30.53
2022-12-19T00:36:39.695Z,31.13
2022-12-19T00:39:08.324Z,29.57
2022-12-19T00:41:37.110Z,31.10
2022-12-19T00:44:09.592Z,28.43
2022-12-19T00:46:36.774Z,29.27
2022-12-19T00:49:05.064Z,29.90
2022-12-19T00:51:34.335Z,27.30
2022-12-19T00:54:02.129Z,34.20
2022-12-19T00:56:31.939Z,28.77
2022-12-19T00:59:02.635Z,31.10
2022-12-19T01:01:33.292Z,31.43
2022-12-19T01:06:47.665Z,29.20
2022-12-19T01:09:14.907Z,31.53
2022-12-19T01:12:00.629Z,28.10
2022-12-19T01:14:27.296Z,30.90
2022-12-19T01:16:53.941Z,28.70
2022-12-19T01:19:20.741Z,30.37
2022-12-19T01:21:47.448Z,27.50
2022-12-19T01:24:15.209Z,31.20
2022-12-19T01:26:49.089Z,27.87
2022-12-19T01:29:15.772Z,29.03
2022-12-19T01:31:42.477Z,27.33
2022-12-19T01:34:09.190Z,31.00
2022-12-19T01:36:39.605Z,28.03
2022-12-19T01:39:07.327Z,32.83
2022-12-19T01:41:34.155Z,27.77
2022-12-19T01:44:08.258Z,29.87
2022-12-19T01:46:46.026Z,29.73
2022-12-19T01:49:28.957Z,29.50
2022-12-19T01:52:00.195Z,27.77
2022-12-19T01:54:33.120Z,29.57
2022-12-19T01:57:01.482Z,28.40
2022-12-19T01:59:41.448Z,29.13
2022-12-19T02:02:14.801Z,29.47
2022-12-19T02:04:41.846Z,29.77
2022-12-19T02:07:15.433Z,29.70
2022-12-19T02:09:46.806Z,26.73
2022-12-19T02:12:14.380Z,27.23
2022-12-19T02:14:41.601Z,28.70
2022-12-19T02:17:08.150Z,27.30
2022-12-19T02:20:21.224Z,28.03
2022-12-19T02:23:00.346Z,26.07
2022-12-19T02:25:36.866Z,28.50
2022-12-19T02:28:21.802Z,28.93
2022-12-19T02:31:17.548Z,32.77
2022-12-19T02:33:58.090Z,29.33
2022-12-19T02:36:38.531Z,28.53
2022-12-19T02:39:11.949Z,30.97
2022-12-19T02:41:44.935Z,31.53
2022-12-19T02:44:26.725Z,29.40
2022-12-19T02:46:55.724Z,27.67
2022-12-19T02:49:25.985Z,29.63
2022-12-19T02:51:57.168Z,31.57
2022-12-19T02:54:24.001Z,28.50
2022-12-19T02:57:11.642Z,29.13
2022-12-19T02:59:57.466Z,29.23
2022-12-19T03:02:44.010Z,27.33
2022-12-19T03:05:27.077Z,30.17
2022-12-19T03:08:13.287Z,34.07
2022-12-19T03:11:00.544Z,32.27
2022-12-19T03:13:32.647Z,31.47
2022-12-19T03:16:02.169Z,32.33
2022-12-19T03:18:29.098Z,29.97
2022-12-19T03:21:13.152Z,29.63
2022-12-19T03:23:40.669Z,32.00
2022-12-19T03:26:12.364Z,30.83
2022-12-19T03:28:44.849Z,28.03
2022-12-19T03:31:13.376Z,29.13
2022-12-19T03:33:42.198Z,29.13
2022-12-19T03:36:14.664Z,29.60
2022-12-19T03:38:45.534Z,28.20
2022-12-19T03:41:16.155Z,29.47
2022-12-19T03:43:45.553Z,26.17
2022-12-19T03:46:23.110Z,27.47
2022-12-19T03:48:54.596Z,26.67
2022-12-19T03:51:43.151Z,28.27
2022-12-19T03:54:17.088Z,26.73
2022-12-19T03:57:09.460Z,33.37
2022-12-19T03:59:55.092Z,26.83
2022-12-19T04:02:23.317Z,28.00
2022-12-19T04:04:59.497Z,29.70
2022-12-19T04:07:27.166Z,27.80
2022-12-19T04:09:55.755Z,27.67
2022-12-19T04:12:29.723Z,27.67
2022-12-19T04:14:56.467Z,27.00
2022-12-19T04:17:34.684Z,26.07
2022-12-19T04:20:11.284Z,28.07
2022-12-19T04:22:43.117Z,27.33
2022-12-19T04:25:15.098Z,26.20
2022-12-19T04:27:46.868Z,27.03
2022-12-19T04:30:16.406Z,27.37
2022-12-19T04:32:43.093Z,29.20
2022-12-19T04:35:09.667Z,29.70
2022-12-19T04:37:36.526Z,28.90
2022-12-19T04:40:04.500Z,27.90
2022-12-19T04:42:31.218Z,28.87
2022-12-19T04:44:58.486Z,26.77
2022-12-19T04:47:25.438Z,29.90
2022-12-19T04:49:52.113Z,27.00
2022-12-19T04:52:18.900Z,28.13
2022-12-19T04:54:45.492Z,28.27
2022-12-19T04:57:12.168Z,26.27
2022-12-19T04:59:38.823Z,30.40
2022-12-19T05:02:08.412Z,29.23
2022-12-19T05:04:35.067Z,31.97
2022-12-19T05:07:01.625Z,29.10
2022-12-19T05:09:28.242Z,28.83
2022-12-19T05:11:54.815Z,29.83
2022-12-19T05:14:21.468Z,27.93
2022-12-19T05:16:48.045Z,25.77
2022-12-19T05:19:14.849Z,29.97
2022-12-19T05:21:41.445Z,26.63
2022-12-19T05:24:08.232Z,28.37
2022-12-19T05:26:34.827Z,26.83
2022-12-19T05:29:01.416Z,29.23
2022-12-19T05:31:28.149Z,29.90
2022-12-19T05:33:54.848Z,27.23
2022-12-19T05:36:25.372Z,32.03
2022-12-19T05:38:54.436Z,28.93
2022-12-19T05:41:21.782Z,30.50
2022-12-19T05:43:54.665Z,30.17
2022-12-19T05:46:22.504Z,29.17
2022-12-19T05:48:49.759Z,30.03
2022-12-19T05:51:16.509Z,28.33
2022-12-19T05:53:43.339Z,29.90
2022-12-19T05:56:11.180Z,29.57
2022-12-19T05:58:38.683Z,29.27
2022-12-19T06:01:17.147Z,27.77
2022-12-19T06:03:44.229Z,29.97
2022-12-19T06:06:13.753Z,30.37
2022-12-19T06:08:41.429Z,29.27
2022-12-19T06:11:09.579Z,28.57
2022-12-19T06:13:36.997Z,33.00
2022-12-19T06:16:10.511Z,32.13
2022-12-19T06:18:41.551Z,28.33
2022-12-19T06:21:14.829Z,32.00
2022-12-19T06:23:41.796Z,31.10
2022-12-19T06:26:15.554Z,29.70
2022-12-19T06:28:45.529Z,30.27
2022-12-19T06:31:12.543Z,28.73
2022-12-19T06:33:39.222Z,31.70
2022-12-19T06:36:10.080Z,29.33
2022-12-19T06:38:36.650Z,34.10
2022-12-19T06:41:22.599Z,29.27
2022-12-19T06:43:53.377Z,31.40
2022-12-19T06:46:20.783Z,32.03
2022-12-19T06:48:47.476Z,33.43
2022-12-19T06:51:14.098Z,33.40
2022-12-19T06:53:40.753Z,33.50
2022-12-19T06:56:08.412Z,32.40
2022-12-19T06:58:35.268Z,30.63
2022-12-19T07:01:02.042Z,32.40
2022-12-19T07:03:48.869Z,33.83
2022-12-19T07:06:15.566Z,33.67
2022-12-19T07:08:42.547Z,34.20
2022-12-19T07:11:09.651Z,30.53
2022-12-19T07:13:36.240Z,33.60
2022-12-19T07:16:05.301Z,33.40
2022-12-19T07:18:38.450Z,34.97
2022-12-19T07:21:07.861Z,33.50
2022-12-19T07:23:35.573Z,36.13
2022-12-19T07:26:02.280Z,33.30
2022-12-19T07:28:29.149Z,31.43
2022-12-19T07:30:55.902Z,31.60
2022-12-19T07:33:22.495Z,27.50
2022-12-19T07:35:49.296Z,26.20
2022-12-19T07:38:16.223Z,27.40
2022-12-19T07:40:42.880Z,25.13
2022-12-19T07:43:09.803Z,23.83
2022-12-19T07:45:38.526Z,23.83
2022-12-19T07:48:07.649Z,25.83
2022-12-19T07:50:35.159Z,27.87
2022-12-19T07:53:01.911Z,22.13
2022-12-19T07:55:28.704Z,22.87
2022-12-19T07:57:55.584Z,24.67
2022-12-19T08:00:23.202Z,26.60
2022-12-19T08:02:50.764Z,23.80
2022-12-19T08:05:17.630Z,23.00
2022-12-19T08:07:44.627Z,22.63
2022-12-19T08:10:12.629Z,23.03
2022-12-19T08:12:39.346Z,23.17
2022-12-19T08:15:07.719Z,22.53
2022-12-19T08:17:35.200Z,24.73
2022-12-19T08:20:01.869Z,21.53
2022-12-19T08:22:31.628Z,21.27
2022-12-19T08:24:58.278Z,21.60
2022-12-19T08:27:26.304Z,21.57
2022-12-19T08:29:53.187Z,22.90
2022-12-19T08:32:21.413Z,23.53
2022-12-19T08:34:49.627Z,22.20
2022-12-19T08:37:16.390Z,20.33
2022-12-19T08:39:43.056Z,21.27
2022-12-19T08:42:09.729Z,21.83
2022-12-19T08:44:36.314Z,18.90
2022-12-19T08:47:02.929Z,20.57
2022-12-19T08:49:29.565Z,20.07
2022-12-19T08:51:56.255Z,22.47
2022-12-19T08:54:23.154Z,23.93
2022-12-19T08:56:49.855Z,21.00
2022-12-19T08:59:22.132Z,19.57
2022-12-19T09:01:57.578Z,22.00
2022-12-19T09:05:45.211Z,21.67
2022-12-19T09:07:11.041Z,22.40
2022-12-19T09:09:37.662Z,20.50
2022-12-19T09:12:04.345Z,18.70
2022-12-19T09:14:35.011Z,22.90
2022-12-19T09:17:02.552Z,19.10
2022-12-19T09:19:31.492Z,18.13
2022-12-19T09:21:58.189Z,22.17
2022-12-19T09:24:24.825Z,19.40
2022-12-19T09:26:51.427Z,21.47
2022-12-19T09:29:21.014Z,26.40
2022-12-19T09:31:55.211Z,18.00
2022-12-19T09:34:23.446Z,20.63
2022-12-19T09:36:51.004Z,27.67
2022-12-19T09:39:18.466Z,20.50
2022-12-19T09:42:16.141Z,23.43
2022-12-19T09:44:48.690Z,15.97
2022-12-19T09:47:23.417Z,19.07
2022-12-19T09:49:52.313Z,23.83
2022-12-19T09:52:25.876Z,21.17
2022-12-19T09:55:17.154Z,17.77
2022-12-19T09:57:49.935Z,19.60
2022-12-19T10:00:22.060Z,18.47
2022-12-19T10:03:00.046Z,17.90
2022-12-19T10:06:40.756Z,17.63
2022-12-19T10:08:47.692Z,17.43
2022-12-19T10:12:44.932Z,17.47
2022-12-19T10:15:08.872Z,18.03
2022-12-19T10:18:06.533Z,16.57
2022-12-19T10:20:38.591Z,17.37
2022-12-19T10:23:14.292Z,22.17
2022-12-19T10:25:40.966Z,26.23
2022-12-19T10:28:45.184Z,21.63
2022-12-19T10:31:37.683Z,20.40
2022-12-19T10:34:28.478Z,21.83
2022-12-19T10:37:29.094Z,19.27
2022-12-19T10:40:05.207Z,18.57
2022-12-19T10:42:52.423Z,17.07
2022-12-19T10:45:21.540Z,20.20
2022-12-19T10:47:56.899Z,17.63
2022-12-19T10:50:27.087Z,17.80
2022-12-19T10:52:53.906Z,13.60
2022-12-19T10:55:27.312Z,14.87
2022-12-19T10:57:58.723Z,17.93
2022-12-19T11:00:25.501Z,16.00
2022-12-19T11:03:08.323Z,14.83
2022-12-19T11:05:47.551Z,14.80
2022-12-19T11:08:25.963Z,16.83
2022-12-19T11:12:41.319Z,14.70
2022-12-19T11:18:42.338Z,16.07
2022-12-19T11:19:44.555Z,18.23
2022-12-19T11:29:26.319Z,15.97
2022-12-19T11:29:42.127Z,17.37
2022-12-19T11:30:38.166Z,14.73
2022-12-19T11:30:48.666Z,14.90
2022-12-19T11:34:03.745Z,14.27
2022-12-19T11:36:41.479Z,13.93
2022-12-19T11:39:33.625Z,14.60
2022-12-19T11:42:14.865Z,13.63
2022-12-19T11:45:02.866Z,14.17
2022-12-19T11:47:42.151Z,13.63
2022-12-19T11:50:16.806Z,15.20
2022-12-19T11:53:09.387Z,13.67
2022-12-19T11:56:05.264Z,12.33
2022-12-19T11:58:48.280Z,13.60
2022-12-19T12:01:52.872Z,15.63
2022-12-19T12:04:22.507Z,13.87
2022-12-19T12:06:53.269Z,16.50
2022-12-19T12:14:02.040Z,14.63
2022-12-19T12:21:41.260Z,12.70
2022-12-19T12:26:12.380Z,13.50
2022-12-19T12:31:14.252Z,12.17
2022-12-19T12:31:31.083Z,13.83
2022-12-19T12:31:42.622Z,12.13
2022-12-19T12:31:43.658Z,14.77
2022-12-19T12:35:51.514Z,14.07
2022-12-19T12:35:54.215Z,14.97
2022-12-19T12:40:23.758Z,13.87
2022-12-19T12:43:15.773Z,16.27
2022-12-19T12:45:44.994Z,15.37
2022-12-19T12:48:30.137Z,13.27
2022-12-19T12:50:58.919Z,14.53
2022-12-19T12:53:31.708Z,14.83
2022-12-19T12:56:01.950Z,13.10
2022-12-19T12:58:48.898Z,13.60
2022-12-19T13:01:31.313Z,12.83
2022-12-19T13:04:03.855Z,12.70
2022-12-19T13:07:01.482Z,13.27
2022-12-19T13:09:35.399Z,15.03
2022-12-19T13:12:46.338Z,13.77
2022-12-19T13:15:22.077Z,13.20
2022-12-19T13:17:49.414Z,14.67
2022-12-19T13:20:19.062Z,16.80
2022-12-19T13:23:19.750Z,16.13
2022-12-19T13:25:47.930Z,14.70
2022-12-19T13:28:20.566Z,12.97
2022-12-19T13:31:20.605Z,14.63
2022-12-19T13:33:51.687Z,13.77
2022-12-19T13:39:56.639Z,13.90
2022-12-19T13:39:57.249Z,11.97
2022-12-19T13:42:51.903Z,15.37
2022-12-19T13:45:30.375Z,13.37
2022-12-19T13:47:59.895Z,14.17
2022-12-19T13:50:30.172Z,17.00
2022-12-19T13:52:57.121Z,17.70
2022-12-19T13:55:23.924Z,14.23
2022-12-19T13:57:54.995Z,19.13
2022-12-19T14:00:33.697Z,16.13
2022-12-19T14:03:01.594Z,14.37
2022-12-19T14:06:16.448Z,12.90
2022-12-19T14:08:25.521Z,12.63
2022-12-19T14:11:36.221Z,13.53
2022-12-19T14:14:18.934Z,15.03
2022-12-19T14:16:49.442Z,13.30
2022-12-19T14:19:30.938Z,14.73
2022-12-19T14:22:20.773Z,15.60
2022-12-19T14:25:44.227Z,15.43
2022-12-19T14:28:24.463Z,13.53
2022-12-19T14:31:00.192Z,12.13
2022-12-19T14:33:41.969Z,16.73
2022-12-19T14:36:32.876Z,14.33
2022-12-19T14:39:24.703Z,14.00
2022-12-19T14:42:08.550Z,12.57
2022-12-19T14:52:11.611Z,13.77
2022-12-19T14:54:11.923Z,13.37
2022-12-19T14:54:22.685Z,18.77
2022-12-19T14:54:44.282Z,14.17
2022-12-19T14:59:01.686Z,13.50
2022-12-19T15:01:32.277Z,15.77
2022-12-19T15:04:52.703Z,14.07
2022-12-19T15:07:12.132Z,14.40
2022-12-19T15:11:03.774Z,14.53
2022-12-19T15:14:52.492Z,13.37
2022-12-19T15:16:31.122Z,14.63
2022-12-19T15:19:02.245Z,13.97
2022-12-19T15:21:30.514Z,15.93
2022-12-19T15:23:57.396Z,14.90
2022-12-19T15:26:30.192Z,13.93
2022-12-19T15:28:58.101Z,13.40
2022-12-19T15:31:34.585Z,15.40
2022-12-19T15:34:36.864Z,14.27
2022-12-19T15:37:04.982Z,14.10
2022-12-19T15:39:31.696Z,14.87
2022-12-19T15:42:00.400Z,13.70
2022-12-19T15:44:43.910Z,13.73
2022-12-19T15:47:32.719Z,14.70
2022-12-19T15:50:02.738Z,15.17
2022-12-19T15:52:30.210Z,14.50
2022-12-19T15:54:57.427Z,12.27
2022-12-19T15:57:36.029Z,14.90
2022-12-19T16:00:08.126Z,17.23
2022-12-19T16:03:13.309Z,11.23
2022-12-19T16:05:24.040Z,13.47
2022-12-19T16:07:52.134Z,14.83
2022-12-19T16:10:19.410Z,15.43
2022-12-19T16:12:51.897Z,12.37
2022-12-19T16:15:28.531Z,14.50
2022-12-19T16:17:57.431Z,13.27
2022-12-19T16:20:31.290Z,13.17
2022-12-19T16:22:59.030Z,12.90
2022-12-19T16:25:35.418Z,12.87
2022-12-19T16:28:06.334Z,12.43
2022-12-19T16:30:35.181Z,15.57
2022-12-19T16:33:03.705Z,13.37
2022-12-19T16:38:19.493Z,11.90
2022-12-19T16:40:48.689Z,14.73
2022-12-19T16:43:35.705Z,13.90
2022-12-19T16:46:06.541Z,15.73
2022-12-19T16:48:37.054Z,13.97
2022-12-19T16:51:03.804Z,14.07
2022-12-19T16:53:31.376Z,14.17
2022-12-19T16:56:00.400Z,12.70
2022-12-19T16:58:28.918Z,11.90
2022-12-19T17:00:57.524Z,12.80
2022-12-19T17:03:45.159Z,12.57
2022-12-19T17:06:17.463Z,15.70
2022-12-19T17:08:45.126Z,15.53
2022-12-19T17:11:21.461Z,14.57
2022-12-19T17:13:51.590Z,12.93
2022-12-19T17:16:19.028Z,13.43
2022-12-19T17:18:47.313Z,16.53
2022-12-19T17:21:23.126Z,16.37
2022-12-19T17:23:51.063Z,13.13
2022-12-19T17:26:18.558Z,13.23
2022-12-19T17:28:48.801Z,12.97
2022-12-19T17:31:28.522Z,11.80
2022-12-19T17:33:58.438Z,13.77
2022-12-19T17:36:36.555Z,12.80
2022-12-19T17:39:17.923Z,15.33
2022-12-19T17:41:45.181Z,13.47
2022-12-19T17:44:12.801Z,15.47
2022-12-19T17:46:39.743Z,14.00
2022-12-19T17:49:06.658Z,12.67
2022-12-19T17:51:34.348Z,12.77
2022-12-19T17:54:01.016Z,15.17
2022-12-19T17:56:29.705Z,11.80
2022-12-19T17:58:56.518Z,13.20
2022-12-19T18:01:25.012Z,12.53
2022-12-19T18:03:56.100Z,13.03
2022-12-19T18:06:22.766Z,16.90
2022-12-19T18:08:49.373Z,13.53
2022-12-19T18:11:24.453Z,15.03
2022-12-19T18:13:52.412Z,13.83
2022-12-19T18:16:24.463Z,11.83
2022-12-19T18:18:51.581Z,15.13
2022-12-19T18:21:21.227Z,13.63
2022-12-19T18:23:48.539Z,12.07
2022-12-19T18:26:15.350Z,13.40
2022-12-19T18:28:42.963Z,13.17
2022-12-19T18:31:25.424Z,13.20
2022-12-19T18:33:54.429Z,12.87
2022-12-19T18:36:24.039Z,13.03
2022-12-19T18:38:51.878Z,11.90
2022-12-19T18:41:19.507Z,12.47
2022-12-19T18:43:46.953Z,12.60
2022-12-19T18:46:16.696Z,11.40
2022-12-19T18:48:45.573Z,11.37
2022-12-19T18:51:18.287Z,13.53
2022-12-19T18:53:45.983Z,12.50
2022-12-19T18:56:13.068Z,13.03
2022-12-19T18:58:39.767Z,10.63
2022-12-19T19:01:13.637Z,11.73
2022-12-19T19:03:41.770Z,11.13
2022-12-19T19:06:32.956Z,11.40
2022-12-19T19:09:02.410Z,12.87
2022-12-19T19:11:47.254Z,11.57
2022-12-19T19:14:14.492Z,11.07
2022-12-19T19:16:41.257Z,11.37
2022-12-19T19:19:11.897Z,9.77
2022-12-19T19:21:39.388Z,12.20
2022-12-19T19:24:10.715Z,11.30
2022-12-19T19:26:37.311Z,12.67
2022-12-19T19:29:05.372Z,11.93
2022-12-19T19:31:35.975Z,13.03
2022-12-19T19:34:16.788Z,10.87
2022-12-19T19:36:49.461Z,11.97
2022-12-19T19:39:17.069Z,13.20
2022-12-19T19:41:43.938Z,12.07
2022-12-19T19:44:11.586Z,13.30
2022-12-19T19:46:38.515Z,12.03
2022-12-19T19:49:05.145Z,13.53
2022-12-19T19:51:32.260Z,12.47
2022-12-19T19:53:58.858Z,14.83
2022-12-19T19:56:25.531Z,12.43
2022-12-19T19:58:52.829Z,13.00
2022-12-19T20:01:19.574Z,10.57
2022-12-19T20:03:46.556Z,12.13
2022-12-19T20:06:13.341Z,11.70
2022-12-19T20:08:41.006Z,10.80
2022-12-19T20:11:10.963Z,12.10
2022-12-19T20:13:37.945Z,9.70
2022-12-19T20:16:07.053Z,11.57
2022-12-19T20:18:34.327Z,12.13
2022-12-19T20:21:01.403Z,10.63
2022-12-19T20:23:28.917Z,11.87
2022-12-19T20:26:03.769Z,11.87
2022-12-19T20:28:32.341Z,10.63
2022-12-19T20:30:59.901Z,11.63
2022-12-19T20:33:26.830Z,14.03
2022-12-19T20:35:57.660Z,8.57
2022-12-19T20:38:24.765Z,8.97
2022-12-19T20:40:52.969Z,9.73
2022-12-19T20:43:19.901Z,9.40
2022-12-19T20:45:46.504Z,9.87
2022-12-19T20:48:13.249Z,9.73
2022-12-19T20:50:43.196Z,8.40
2022-12-19T20:53:10.101Z,8.40
2022-12-19T20:55:36.716Z,8.93
2022-12-19T20:58:04.689Z,9.27
2022-12-19T21:00:31.327Z,8.40
2022-12-19T21:05:52.416Z,9.77
2022-12-19T21:08:19.321Z,7.63
2022-12-19T21:10:45.940Z,7.30
2022-12-19T21:13:12.521Z,7.20
2022-12-19T21:15:39.297Z,8.07
2022-12-19T21:18:06.310Z,7.97
2022-12-19T21:20:38.101Z,9.57
2022-12-19T21:23:05.260Z,9.60
2022-12-19T21:25:31.956Z,8.67
2022-12-19T21:27:58.601Z,8.67
2022-12-19T21:30:25.214Z,7.23
2022-12-19T21:32:51.843Z,7.97
2022-12-19T21:35:18.437Z,7.73
2022-12-19T21:37:50.069Z,6.77
2022-12-19T21:40:18.181Z,7.10
2022-12-19T21:42:45.021Z,6.87
2022-12-19T21:45:12.436Z,7.90
2022-12-19T21:47:40.196Z,6.33
2022-12-19T21:50:09.813Z,8.50
2022-12-19T21:52:36.872Z,7.17
2022-12-19T21:55:07.679Z,6.60
2022-12-19T21:57:39.693Z,8.17
2022-12-19T22:00:09.231Z,8.20
2022-12-19T22:02:36.231Z,6.97
2022-12-19T22:05:03.079Z,6.97
2022-12-19T22:07:30.125Z,6.43
2022-12-19T22:09:56.739Z,5.50
2022-12-19T22:12:23.374Z,6.30
2022-12-19T22:14:52.438Z,7.60
2022-12-19T22:17:19.071Z,7.17
2022-12-19T22:19:45.792Z,6.20
2022-12-19T22:22:12.427Z,6.83
2022-12-19T22:24:39.041Z,7.13
2022-12-19T22:27:05.704Z,7.50
2022-12-19T22:29:36.419Z,6.67
2022-12-19T22:32:04.349Z,7.57
2022-12-19T22:34:31.160Z,5.77
2022-12-19T22:36:57.819Z,6.03
2022-12-19T22:39:24.546Z,5.80
2022-12-19T22:41:51.192Z,6.03
2022-12-19T22:44:21.436Z,5.50
2022-12-19T22:46:48.987Z,6.90
2022-12-19T22:49:15.860Z,5.73
2022-12-19T22:51:42.657Z,5.40
2022-12-19T22:54:11.284Z,4.20
2022-12-19T22:56:38.090Z,5.47
2022-12-19T22:59:07.123Z,6.17
2022-12-19T23:01:37.109Z,5.00
2022-12-19T23:04:04.978Z,4.80
2022-12-19T23:06:33.840Z,4.00
2022-12-19T23:09:01.369Z,5.60
2022-12-19T23:11:31.197Z,7.07
2022-12-19T23:13:58.815Z,5.20
2022-12-19T23:16:25.470Z,4.87
2022-12-19T23:18:52.072Z,5.00
2022-12-19T23:21:21.810Z,5.57
2022-12-19T23:23:51.429Z,3.97
2022-12-19T23:26:29.969Z,4.03
2022-12-19T23:29:08.678Z,4.03
2022-12-19T23:31:35.854Z,4.87
2022-12-19T23:34:02.506Z,3.53
2022-12-19T23:39:16.362Z,5.77
2022-12-19T23:41:43.190Z,6.40
2022-12-19T23:44:10.545Z,6.27
2022-12-19T23:46:37.990Z,5.33
2022-12-19T23:49:04.696Z,5.33
2022-12-19T23:51:31.495Z,7.00
2022-12-19T23:53:58.423Z,4.40
2022-12-19T23:56:27.989Z,5.13
2022-12-19T23:58:55.403Z,5.43
